createdAt,value
2023-03-03T00:02:06.889Z,-2.73
2023-03-03T00:04:33.428Z,-2.41
2023-03-03T00:06:59.891Z,-2.65
2023-03-03T00:09:26.532Z,-2.59
2023-03-03T00:11:56.176Z,-2.95
2023-03-03T00:14:23.888Z,-3.11
2023-03-03T00:16:50.794Z,-2.77
2023-03-03T00:19:20.317Z,-3.69
2023-03-03T00:21:47.283Z,-3.76
2023-03-03T00:24:15.456Z,-3.73
2023-03-03T00:26:42.528Z,-3.25
2023-03-03T00:29:24.426Z,-3.01
2023-03-03T00:31:50.908Z,-3.07
2023-03-03T00:34:20.776Z,-2.85
2023-03-03T00:36:47.235Z,-2.57
2023-03-03T00:39:22.478Z,-2.44
2023-03-03T00:41:49.008Z,-2.10
2023-03-03T00:44:39.332Z,-2.08
2023-03-03T00:47:31.015Z,-2.05
2023-03-03T00:50:18.171Z,-1.77
2023-03-03T00:52:54.082Z,-1.75
2023-03-03T00:55:20.553Z,-1.77
2023-03-03T00:57:47.046Z,-1.99
2023-03-03T01:00:16.392Z,-2.26
2023-03-03T01:02:45.391Z,-2.14
2023-03-03T01:05:16.628Z,-1.99
2023-03-03T01:07:43.177Z,-1.95
2023-03-03T01:10:09.904Z,-1.99
2023-03-03T01:12:36.352Z,-1.83
2023-03-03T01:15:02.878Z,-2.02
2023-03-03T01:17:29.711Z,-2.00
2023-03-03T01:19:57.106Z,-2.14
2023-03-03T01:22:23.598Z,-1.83
2023-03-03T01:24:50.073Z,-1.92
2023-03-03T01:27:16.602Z,-1.92
2023-03-03T01:29:43.108Z,-1.93
2023-03-03T01:32:09.548Z,-2.15
2023-03-03T01:34:36.061Z,-2.18
2023-03-03T01:37:02.636Z,-1.94
2023-03-03T01:39:29.079Z,-1.65
2023-03-03T01:41:55.534Z,-1.43
2023-03-03T01:44:22.045Z,-1.35
2023-03-03T01:46:55.648Z,-1.44
2023-03-03T01:49:23.070Z,-1.48
2023-03-03T01:51:51.103Z,-1.26
2023-03-03T01:54:22.024Z,-1.40
2023-03-03T01:56:48.862Z,-1.49
2023-03-03T01:59:20.280Z,-2.08
2023-03-03T02:01:47.419Z,-1.81
2023-03-03T02:04:13.958Z,-1.51
2023-03-03T02:06:42.033Z,-1.32
2023-03-03T02:09:12.873Z,-1.42
2023-03-03T02:11:39.375Z,-1.68
2023-03-03T02:14:05.857Z,-1.46
2023-03-03T02:16:32.539Z,-1.41
2023-03-03T02:18:59.566Z,-1.61
2023-03-03T02:21:28.723Z,-1.36
2023-03-03T02:24:07.628Z,-1.33
2023-03-03T02:26:35.897Z,-1.35
2023-03-03T02:29:06.027Z,-1.28
2023-03-03T02:31:32.676Z,-1.51
2023-03-03T02:33:59.655Z,-1.55
2023-03-03T02:36:30.307Z,-1.46
2023-03-03T02:39:02.928Z,-1.38
2023-03-03T02:41:31.124Z,-1.38
2023-03-03T02:44:00.190Z,-0.97
2023-03-03T02:46:27.765Z,-1.10
2023-03-03T02:48:54.232Z,-1.10
2023-03-03T02:51:20.826Z,-1.17
2023-03-03T02:53:47.296Z,-1.36
2023-03-03T02:56:13.931Z,-1.33
2023-03-03T02:58:40.366Z,-1.52
2023-03-03T03:01:07.420Z,-1.38
2023-03-03T03:03:35.042Z,-1.35
2023-03-03T03:06:04.276Z,-1.30
2023-03-03T03:08:30.863Z,-1.09
2023-03-03T03:10:57.583Z,-1.05
2023-03-03T03:13:26.084Z,-1.02
2023-03-03T03:15:53.005Z,-0.95
2023-03-03T03:18:19.723Z,-0.73
2023-03-03T03:20:48.373Z,-0.91
2023-03-03T03:23:15.078Z,-1.28
2023-03-03T03:25:46.565Z,-1.33
2023-03-03T03:28:19.861Z,-0.71
2023-03-03T03:30:46.736Z,-1.15
2023-03-03T03:33:13.297Z,-1.07
2023-03-03T03:35:45.532Z,-0.96
2023-03-03T03:38:13.525Z,-0.78
2023-03-03T03:40:40.304Z,-0.81
2023-03-03T03:43:06.754Z,-0.83
2023-03-03T03:45:33.429Z,-0.73
2023-03-03T03:48:01.571Z,-0.68
2023-03-03T03:50:29.240Z,-0.87
2023-03-03T03:52:55.862Z,-0.82
2023-03-03T03:55:23.046Z,-0.87
2023-03-03T03:57:50.012Z,-1.25
2023-03-03T04:00:16.491Z,-1.42
2023-03-03T04:02:49.119Z,-1.53
2023-03-03T04:05:17.964Z,-1.75
2023-03-03T04:07:44.728Z,-1.32
2023-03-03T04:10:11.460Z,-1.27
2023-03-03T04:12:39.072Z,-1.03
2023-03-03T04:15:09.967Z,-1.57
2023-03-03T04:17:37.552Z,-1.70
2023-03-03T04:20:04.544Z,-1.35
2023-03-03T04:22:36.015Z,-1.54
2023-03-03T04:25:05.302Z,-1.81
2023-03-03T04:27:36.338Z,-1.53
2023-03-03T04:30:05.275Z,-1.27
2023-03-03T04:32:33.921Z,-1.36
2023-03-03T04:35:08.259Z,-0.96
2023-03-03T04:37:38.860Z,-1.87
2023-03-03T04:40:06.375Z,-2.06
2023-03-03T04:42:32.974Z,-1.95
2023-03-03T04:44:59.485Z,-1.58
2023-03-03T04:47:26.101Z,-1.69
2023-03-03T04:49:52.881Z,-1.76
2023-03-03T04:52:19.673Z,-1.28
2023-03-03T04:54:46.243Z,-1.16
2023-03-03T04:57:13.273Z,-1.46
2023-03-03T04:59:39.778Z,-1.76
2023-03-03T05:02:06.312Z,-1.31
2023-03-03T05:04:33.213Z,-1.22
2023-03-03T05:06:59.700Z,-1.29
2023-03-03T05:09:26.167Z,-1.54
2023-03-03T05:11:52.778Z,-1.97
2023-03-03T05:14:19.217Z,-2.02
2023-03-03T05:16:45.745Z,-2.11
2023-03-03T05:19:12.188Z,-1.83
2023-03-03T05:21:42.312Z,-2.05
2023-03-03T05:24:09.450Z,-2.10
2023-03-03T05:26:36.016Z,-1.69
2023-03-03T05:29:02.510Z,-1.74
2023-03-03T05:31:29.028Z,-1.86
2023-03-03T05:33:55.587Z,-1.88
2023-03-03T05:36:22.067Z,-1.96
2023-03-03T05:38:51.552Z,-1.99
2023-03-03T05:41:22.212Z,-2.08
2023-03-03T05:43:49.179Z,-2.16
2023-03-03T05:46:15.898Z,-2.12
2023-03-03T05:48:43.070Z,-1.94
2023-03-03T05:51:09.810Z,-1.94
2023-03-03T05:53:36.535Z,-2.11
2023-03-03T05:56:03.392Z,-2.03
2023-03-03T05:58:30.343Z,-1.95
2023-03-03T06:00:57.042Z,-2.09
2023-03-03T06:03:23.706Z,-1.68
2023-03-03T06:05:50.352Z,-1.94
2023-03-03T06:08:17.004Z,-2.08
2023-03-03T06:10:43.621Z,-1.86
2023-03-03T06:13:12.782Z,-1.70
2023-03-03T06:15:39.460Z,-1.72
2023-03-03T06:18:06.179Z,-1.49
2023-03-03T06:20:35.580Z,-1.52
2023-03-03T06:23:02.317Z,-1.91
2023-03-03T06:25:30.950Z,-1.65
2023-03-03T06:27:58.084Z,-1.37
2023-03-03T06:30:24.757Z,-1.91
2023-03-03T06:32:51.539Z,-1.77
2023-03-03T06:35:18.449Z,-1.40
2023-03-03T06:37:45.298Z,-1.77
2023-03-03T06:40:12.496Z,-1.86
2023-03-03T06:42:39.242Z,-1.71
2023-03-03T06:45:06.180Z,-1.65
2023-03-03T06:47:33.981Z,-1.83
2023-03-03T06:50:00.616Z,-1.87
2023-03-03T06:52:27.325Z,-1.72
2023-03-03T06:54:54.959Z,-1.44
2023-03-03T06:57:29.168Z,-1.52
2023-03-03T06:59:57.898Z,-1.25
2023-03-03T07:02:24.563Z,-1.27
2023-03-03T07:04:51.164Z,-1.09
2023-03-03T07:07:25.023Z,-1.02
2023-03-03T07:09:56.084Z,-1.01
2023-03-03T07:12:26.892Z,-0.69
2023-03-03T07:14:58.475Z,-0.83
2023-03-03T07:17:25.422Z,-0.81
2023-03-03T07:19:52.086Z,-0.72
2023-03-03T07:22:20.419Z,-0.55
2023-03-03T07:24:57.874Z,-0.59
2023-03-03T07:27:26.333Z,-0.51
2023-03-03T07:29:54.364Z,-0.56
2023-03-03T07:32:40.516Z,-0.51
2023-03-03T07:35:40.248Z,-0.68
2023-03-03T07:38:35.372Z,-0.49
2023-03-03T07:41:03.699Z,-0.71
2023-03-03T07:44:06.560Z,-1.16
2023-03-03T07:46:37.114Z,-1.40
2023-03-03T07:49:12.311Z,-1.49
2023-03-03T07:51:42.134Z,-1.44
2023-03-03T07:54:32.051Z,-1.22
2023-03-03T07:57:26.896Z,-1.12
2023-03-03T07:59:56.016Z,-1.46
2023-03-03T08:02:28.757Z,-1.30
2023-03-03T08:04:55.598Z,-1.10
2023-03-03T08:07:22.962Z,-1.05
2023-03-03T08:09:51.108Z,-1.29
2023-03-03T08:12:45.188Z,-0.92
2023-03-03T08:15:25.384Z,-1.13
2023-03-03T08:17:53.474Z,-1.20
2023-03-03T08:20:29.313Z,-0.83
2023-03-03T08:22:56.086Z,-0.74
2023-03-03T08:25:23.000Z,-0.60
2023-03-03T08:27:49.866Z,-0.59
2023-03-03T08:30:16.679Z,-1.39
2023-03-03T08:32:43.532Z,-1.24
2023-03-03T08:35:10.425Z,-1.24
2023-03-03T08:37:37.012Z,-0.69
2023-03-03T08:40:03.703Z,-0.88
2023-03-03T08:42:30.510Z,-0.99
2023-03-03T08:44:57.130Z,-1.10
2023-03-03T08:47:23.962Z,-1.03
2023-03-03T08:49:50.626Z,-1.17
2023-03-03T08:52:17.196Z,-1.28
2023-03-03T08:54:43.849Z,-1.12
2023-03-03T08:57:10.438Z,-1.34
2023-03-03T08:59:39.085Z,-0.65
2023-03-03T09:02:08.896Z,-0.78
2023-03-03T09:04:35.619Z,-1.24
2023-03-03T09:07:02.249Z,-1.31
2023-03-03T09:09:28.964Z,-1.52
2023-03-03T09:12:02.209Z,-1.53
2023-03-03T09:14:29.636Z,-1.31
2023-03-03T09:16:56.860Z,-0.93
2023-03-03T09:19:29.547Z,-1.20
2023-03-03T09:21:57.602Z,-1.10
2023-03-03T09:24:29.239Z,-0.95
2023-03-03T09:26:59.507Z,-0.66
2023-03-03T09:29:30.288Z,-0.70
2023-03-03T09:31:59.634Z,-0.64
2023-03-03T09:34:41.130Z,-1.24
2023-03-03T09:37:23.824Z,-1.34
2023-03-03T09:39:55.161Z,-1.05
2023-03-03T09:42:31.040Z,-0.43
2023-03-03T09:45:22.516Z,-0.99
2023-03-03T09:47:52.970Z,-0.96
2023-03-03T09:50:30.270Z,-1.00
2023-03-03T09:53:22.677Z,-0.75
2023-03-03T09:56:08.010Z,-0.77
2023-03-03T09:58:53.618Z,-0.76
2023-03-03T10:01:34.342Z,-0.49
2023-03-03T10:04:00.857Z,-0.61
2023-03-03T10:06:42.726Z,-0.95
2023-03-03T10:09:22.506Z,-0.81
2023-03-03T10:12:10.367Z,-0.73
2023-03-03T10:15:11.092Z,-0.50
2023-03-03T10:17:53.525Z,-0.76
2023-03-03T10:20:49.161Z,-0.44
2023-03-03T10:23:43.358Z,-0.45
2023-03-03T10:26:44.646Z,-0.58
2023-03-03T10:29:34.177Z,-0.47
2023-03-03T10:32:30.454Z,-0.18
2023-03-03T10:35:06.243Z,-0.51
2023-03-03T10:37:54.128Z,-0.19
2023-03-03T10:40:35.020Z,-0.73
2023-03-03T10:43:40.166Z,-0.96
2023-03-03T10:46:37.498Z,-0.92
2023-03-03T10:49:14.800Z,-0.73
2023-03-03T10:52:08.687Z,-0.94
2023-03-03T10:55:04.407Z,-0.71
2023-03-03T10:58:01.220Z,-0.46
2023-03-03T11:00:38.950Z,-0.81
2023-03-03T11:03:24.044Z,-0.59
2023-03-03T11:06:17.355Z,-0.95
2023-03-03T11:08:53.023Z,-1.00
2023-03-03T11:12:04.681Z,-0.83
2023-03-03T11:14:47.954Z,-0.68
2023-03-03T11:17:47.034Z,-0.76
2023-03-03T11:20:37.901Z,-1.02
2023-03-03T11:23:17.637Z,-0.74
2023-03-03T11:25:49.245Z,-1.02
2023-03-03T11:28:21.752Z,-0.69
2023-03-03T11:31:06.792Z,-0.28
2023-03-03T11:33:58.475Z,-0.71
2023-03-03T11:36:34.924Z,-0.92
2023-03-03T11:39:22.321Z,-1.03
2023-03-03T11:42:03.643Z,-0.46
2023-03-03T11:45:08.879Z,-0.79
2023-03-03T11:48:04.312Z,-0.36
2023-03-03T11:50:36.091Z,-0.55
2023-03-03T11:53:05.500Z,-0.55
2023-03-03T11:55:39.421Z,-0.34
2023-03-03T11:58:08.394Z,0.26
2023-03-03T12:01:09.444Z,-0.10
2023-03-03T12:03:58.600Z,-0.94
2023-03-03T12:06:34.271Z,-1.05
2023-03-03T12:09:22.539Z,-0.82
2023-03-03T12:11:54.167Z,-1.17
2023-03-03T12:14:28.660Z,-0.77
2023-03-03T12:16:59.569Z,-0.59
2023-03-03T12:19:44.590Z,-1.13
2023-03-03T12:22:16.806Z,-0.73
2023-03-03T12:25:04.874Z,-0.53
2023-03-03T12:27:38.714Z,-0.22
2023-03-03T12:30:13.631Z,-0.02
2023-03-03T12:32:56.776Z,-0.68
2023-03-03T12:35:29.009Z,-1.02
2023-03-03T12:38:18.714Z,-0.97
2023-03-03T12:41:09.431Z,-0.47
2023-03-03T12:43:58.235Z,-0.10
2023-03-03T12:46:45.152Z,0.17
2023-03-03T12:49:11.841Z,-0.51
2023-03-03T12:51:41.164Z,-0.87
2023-03-03T12:54:29.353Z,-1.01
2023-03-03T12:57:21.400Z,-0.62
2023-03-03T13:00:21.121Z,-0.22
2023-03-03T13:03:15.334Z,-0.19
2023-03-03T13:05:59.545Z,-0.29
2023-03-03T13:08:52.033Z,-0.96
2023-03-03T13:11:34.350Z,-0.76
2023-03-03T13:14:34.941Z,-1.01
2023-03-03T13:17:22.195Z,-0.42
2023-03-03T13:20:02.716Z,-0.71
2023-03-03T13:22:53.960Z,-1.26
2023-03-03T13:25:31.493Z,-1.59
2023-03-03T13:28:11.943Z,-1.28
2023-03-03T13:30:40.319Z,-0.83
2023-03-03T13:33:20.913Z,-0.81
2023-03-03T13:35:53.701Z,-0.62
2023-03-03T13:38:31.664Z,-1.26
2023-03-03T13:41:17.574Z,-0.91
2023-03-03T13:43:49.664Z,-0.60
2023-03-03T13:46:31.467Z,-0.41
2023-03-03T13:49:16.785Z,-1.32
2023-03-03T13:52:06.039Z,-1.37
2023-03-03T13:54:48.124Z,-0.74
2023-03-03T13:57:25.097Z,-0.74
2023-03-03T14:00:07.405Z,-0.48
2023-03-03T14:03:09.207Z,-0.75
2023-03-03T14:05:44.540Z,-0.94
2023-03-03T14:08:16.121Z,-1.16
2023-03-03T14:10:45.701Z,-0.94
2023-03-03T14:13:13.846Z,-1.17
2023-03-03T14:15:55.641Z,-1.17
2023-03-03T14:18:28.125Z,-0.73
2023-03-03T14:20:56.229Z,-0.82
2023-03-03T14:23:55.795Z,-0.60
2023-03-03T14:26:22.481Z,-0.66
2023-03-03T14:28:49.936Z,-0.94
2023-03-03T14:31:26.617Z,-1.17
2023-03-03T14:34:11.637Z,-1.23
2023-03-03T14:36:43.000Z,-0.69
2023-03-03T14:39:41.581Z,-1.01
2023-03-03T14:42:14.329Z,-0.94
2023-03-03T14:44:47.028Z,-0.84
2023-03-03T14:47:24.172Z,-0.58
2023-03-03T14:49:51.524Z,-0.33
2023-03-03T14:52:24.271Z,-0.37
2023-03-03T14:54:55.869Z,0.08
2023-03-03T14:57:35.771Z,-0.60
2023-03-03T15:00:10.653Z,-0.42
2023-03-03T15:02:37.927Z,-0.22
2023-03-03T15:05:20.923Z,-0.44
2023-03-03T15:07:55.382Z,-0.83
2023-03-03T15:10:48.409Z,-0.29
2023-03-03T15:13:21.052Z,0.21
2023-03-03T15:15:59.972Z,-0.26
2023-03-03T15:18:27.521Z,-0.15
2023-03-03T15:21:16.132Z,-0.98
2023-03-03T15:23:56.420Z,-0.64
2023-03-03T15:26:45.247Z,-0.58
2023-03-03T15:29:23.162Z,-0.94
2023-03-03T15:32:04.143Z,-0.14
2023-03-03T15:35:01.502Z,-0.07
2023-03-03T15:37:39.934Z,-0.06
2023-03-03T15:40:34.663Z,-0.20
2023-03-03T15:43:37.608Z,-0.29
2023-03-03T15:46:33.652Z,-0.59
2023-03-03T15:49:00.362Z,-0.42
2023-03-03T15:52:00.991Z,-0.12
2023-03-03T15:55:16.836Z,0.24
2023-03-03T15:58:04.309Z,0.05
2023-03-03T16:01:02.040Z,0.21
2023-03-03T16:03:36.405Z,0.20
2023-03-03T16:06:08.860Z,0.11
2023-03-03T16:09:03.180Z,0.04
2023-03-03T16:11:54.065Z,-0.25
2023-03-03T16:14:42.686Z,0.03
2023-03-03T16:17:24.041Z,-0.31
2023-03-03T16:20:02.046Z,-0.32
2023-03-03T16:22:47.484Z,-0.19
2023-03-03T16:25:38.504Z,-0.81
2023-03-03T16:28:25.835Z,-0.88
2023-03-03T16:31:10.565Z,-0.85
2023-03-03T16:33:43.864Z,-0.52
2023-03-03T16:36:37.715Z,-0.92
2023-03-03T16:39:15.434Z,-0.36
2023-03-03T16:41:51.327Z,-0.61
2023-03-03T16:44:42.039Z,-1.01
2023-03-03T16:47:39.153Z,-1.11
2023-03-03T16:50:13.081Z,-1.27
2023-03-03T16:52:54.474Z,-1.01
2023-03-03T16:55:56.240Z,-1.39
2023-03-03T16:58:43.790Z,-1.02
2023-03-03T17:01:26.373Z,-1.35
2023-03-03T17:04:02.918Z,-0.58
2023-03-03T17:06:34.164Z,-0.54
2023-03-03T17:09:03.809Z,-1.10
2023-03-03T17:12:00.664Z,-1.39
2023-03-03T17:14:41.964Z,-1.13
2023-03-03T17:17:32.665Z,-0.68
2023-03-03T17:20:22.185Z,-0.63
2023-03-03T17:23:22.560Z,-0.28
2023-03-03T17:26:22.253Z,-0.11
2023-03-03T17:28:52.571Z,0.05
2023-03-03T17:31:50.864Z,0.30
2023-03-03T17:34:48.696Z,-0.26
2023-03-03T17:37:30.607Z,-0.39
2023-03-03T17:40:06.051Z,-0.09
2023-03-03T17:42:32.537Z,-0.21
2023-03-03T17:45:13.057Z,0.03
2023-03-03T17:47:50.044Z,0.12
2023-03-03T17:50:50.916Z,-1.31
2023-03-03T17:53:36.639Z,-0.61
2023-03-03T17:56:08.296Z,-0.28
2023-03-03T17:58:53.350Z,-0.07
2023-03-03T18:01:21.398Z,0.02
2023-03-03T18:04:25.149Z,0.14
2023-03-03T18:07:13.819Z,-0.07
2023-03-03T18:09:49.650Z,-0.11
2023-03-03T18:12:42.517Z,0.07
2023-03-03T18:15:18.316Z,0.13
2023-03-03T18:18:14.116Z,-0.02
2023-03-03T18:20:59.919Z,-0.28
2023-03-03T18:23:39.737Z,-0.30
2023-03-03T18:26:35.260Z,-0.16
2023-03-03T18:29:16.852Z,0.03
2023-03-03T18:32:10.933Z,-0.23
2023-03-03T18:34:39.466Z,-0.09
2023-03-03T18:37:30.716Z,0.04
2023-03-03T18:40:00.225Z,-0.05
2023-03-03T18:42:42.344Z,0.12
2023-03-03T18:45:31.668Z,0.09
2023-03-03T18:48:01.074Z,0.11
2023-03-03T18:50:40.131Z,0.14
2023-03-03T18:53:14.545Z,0.14
2023-03-03T18:55:48.424Z,-0.08
2023-03-03T18:58:14.855Z,-0.18
2023-03-03T19:00:46.259Z,-0.29
2023-03-03T19:03:29.008Z,-0.87
2023-03-03T19:05:57.916Z,-0.68
2023-03-03T19:08:28.528Z,-0.34
2023-03-03T19:10:58.888Z,-0.06
2023-03-03T19:13:34.459Z,-0.50
2023-03-03T19:16:01.767Z,-0.23
2023-03-03T19:18:29.227Z,-0.18
2023-03-03T19:21:00.866Z,-0.25
2023-03-03T19:23:47.630Z,-0.08
2023-03-03T19:26:28.573Z,-0.38
2023-03-03T19:29:00.438Z,-0.39
2023-03-03T19:31:35.018Z,-0.21
2023-03-03T19:34:13.389Z,-0.27
2023-03-03T19:36:48.870Z,-0.28
2023-03-03T19:39:37.002Z,-0.28
2023-03-03T19:42:18.421Z,-0.36
2023-03-03T19:45:41.899Z,-0.35
2023-03-03T19:48:45.973Z,-0.25
2023-03-03T19:51:28.225Z,-0.17
2023-03-03T19:54:16.050Z,0.18
2023-03-03T19:56:50.839Z,-0.28
2023-03-03T19:59:36.125Z,0.11
2023-03-03T20:02:12.399Z,0.36
2023-03-03T20:04:52.375Z,0.15
2023-03-03T20:07:33.834Z,-0.03
2023-03-03T20:10:28.554Z,-0.11
2023-03-03T20:13:19.930Z,0.11
2023-03-03T20:15:55.786Z,-0.40
2023-03-03T20:18:40.079Z,-0.24
2023-03-03T20:21:22.122Z,-0.22
2023-03-03T20:24:03.231Z,-0.22
2023-03-03T20:27:11.030Z,-0.04
2023-03-03T20:29:50.416Z,0.14
2023-03-03T20:32:50.968Z,0.06
2023-03-03T20:35:30.862Z,0.31
2023-03-03T20:38:06.942Z,-0.29
2023-03-03T20:40:36.573Z,-0.51
2023-03-03T20:43:13.894Z,-0.26
2023-03-03T20:46:02.661Z,-0.06
2023-03-03T20:48:44.470Z,-0.01
2023-03-03T20:51:16.166Z,-0.22
2023-03-03T20:53:49.268Z,-0.47
2023-03-03T20:56:20.753Z,-0.41
2023-03-03T20:58:59.580Z,-0.47
2023-03-03T21:01:38.770Z,-0.30
2023-03-03T21:04:22.596Z,-0.48
2023-03-03T21:06:49.328Z,-0.29
2023-03-03T21:09:23.894Z,-0.24
2023-03-03T21:11:50.712Z,-0.16
2023-03-03T21:14:27.620Z,-0.20
2023-03-03T21:16:56.810Z,-0.22
2023-03-03T21:19:28.636Z,-0.15
2023-03-03T21:21:55.320Z,-0.16
2023-03-03T21:24:22.664Z,-0.17
2023-03-03T21:26:59.855Z,-0.13
2023-03-03T21:29:33.948Z,-0.28
2023-03-03T21:32:05.651Z,-0.40
2023-03-03T21:34:39.814Z,-0.37
2023-03-03T21:37:10.913Z,-0.45
2023-03-03T21:39:38.962Z,-0.40
2023-03-03T21:42:07.222Z,-0.32
2023-03-03T21:44:39.124Z,-0.44
2023-03-03T21:47:06.767Z,-0.51
2023-03-03T21:49:33.565Z,-0.28
2023-03-03T21:52:00.367Z,-0.61
2023-03-03T21:54:27.025Z,-0.50
2023-03-03T21:56:53.973Z,-0.49
2023-03-03T21:59:20.716Z,-0.42
2023-03-03T22:01:47.374Z,-0.51
2023-03-03T22:04:14.178Z,-0.67
2023-03-03T22:06:40.782Z,-0.54
2023-03-03T22:09:07.436Z,-0.50
2023-03-03T22:11:34.086Z,-0.54
2023-03-03T22:14:00.701Z,-0.40
2023-03-03T22:16:27.325Z,-0.47
2023-03-03T22:18:53.916Z,-0.39
2023-03-03T22:21:20.589Z,-0.36
2023-03-03T22:23:47.322Z,-0.36
2023-03-03T22:26:13.956Z,-0.39
2023-03-03T22:28:42.037Z,-0.69
2023-03-03T22:31:10.491Z,-0.62
2023-03-03T22:33:37.103Z,-0.60
2023-03-03T22:36:03.843Z,-0.60
2023-03-03T22:38:30.470Z,-0.63
2023-03-03T22:40:57.075Z,-0.53
2023-03-03T22:43:25.658Z,-0.55
2023-03-03T22:45:52.301Z,-0.35
2023-03-03T22:48:19.024Z,-0.39
2023-03-03T22:50:47.364Z,-0.64
2023-03-03T22:53:14.003Z,-0.63
2023-03-03T22:55:40.716Z,-0.53
2023-03-03T22:58:09.453Z,-0.24
2023-03-03T23:00:38.550Z,-0.27
2023-03-03T23:03:06.399Z,-0.26
2023-03-03T23:05:33.210Z,-0.65
2023-03-03T23:07:59.878Z,-0.51
2023-03-03T23:10:26.437Z,-0.54
2023-03-03T23:12:52.998Z,-0.65
2023-03-03T23:15:20.226Z,-0.44
2023-03-03T23:17:46.822Z,-0.57
2023-03-03T23:20:15.464Z,-0.50
2023-03-03T23:22:42.112Z,-0.14
2023-03-03T23:25:09.197Z,-0.36
2023-03-03T23:27:35.807Z,-0.45
2023-03-03T23:30:02.412Z,-0.34
2023-03-03T23:32:29.108Z,-0.34
2023-03-03T23:34:55.946Z,-0.25
2023-03-03T23:37:22.601Z,-0.13
2023-03-03T23:39:49.170Z,-0.16
2023-03-03T23:42:15.820Z,-0.06
2023-03-03T23:44:42.445Z,-0.16
2023-03-03T23:47:09.248Z,-0.13
2023-03-03T23:49:35.897Z,-0.11
2023-03-03T23:52:02.557Z,-0.19
2023-03-03T23:54:29.154Z,-0.43
2023-03-03T23:56:55.834Z,-0.72
2023-03-03T23:59:22.416Z,-0.82
